createdAt,value
2022-10-06T00:00:23.923Z,82.48
2022-10-06T00:03:15.010Z,82.56
2022-10-06T00:05:45.037Z,82.38
2022-10-06T00:08:14.273Z,82.68
2022-10-06T00:10:43.386Z,82.57
2022-10-06T00:13:12.693Z,82.97
2022-10-06T00:15:41.900Z,83.25
2022-10-06T00:18:11.044Z,82.82
2022-10-06T00:20:43.422Z,83.21
2022-10-06T00:23:12.592Z,82.89
2022-10-06T00:25:41.894Z,83.08
2022-10-06T00:28:11.079Z,83.03
2022-10-06T00:30:40.241Z,83.47
2022-10-06T00:33:13.108Z,83.56
2022-10-06T00:35:44.872Z,83.61
2022-10-06T00:38:15.993Z,83.40
2022-10-06T00:40:46.883Z,83.09
2022-10-06T00:43:43.227Z,83.62
2022-10-06T00:46:16.909Z,83.79
2022-10-06T00:48:49.484Z,84.08
2022-10-06T00:51:21.159Z,83.67
2022-10-06T00:53:51.504Z,84.27
2022-10-06T00:56:20.689Z,84.03
2022-10-06T00:58:51.383Z,84.28
2022-10-06T01:01:21.020Z,84.04
2022-10-06T01:03:56.547Z,84.34
2022-10-06T01:06:27.256Z,83.88
2022-10-06T01:08:56.873Z,83.60
2022-10-06T01:11:26.515Z,83.96
2022-10-06T01:13:55.699Z,84.16
2022-10-06T01:16:27.104Z,84.04
2022-10-06T01:18:58.408Z,83.95
2022-10-06T01:21:31.591Z,84.42
2022-10-06T01:24:05.757Z,84.16
2022-10-06T01:26:37.796Z,84.08
2022-10-06T01:29:07.531Z,84.20
2022-10-06T01:31:36.958Z,83.75
2022-10-06T01:34:07.111Z,83.94
2022-10-06T01:36:36.489Z,83.79
2022-10-06T01:39:07.106Z,83.74
2022-10-06T01:41:36.291Z,84.05
2022-10-06T01:44:06.040Z,84.06
2022-10-06T01:46:35.202Z,83.87
2022-10-06T01:49:04.325Z,84.57
2022-10-06T01:51:33.800Z,84.25
2022-10-06T01:54:03.037Z,84.32
2022-10-06T01:56:33.562Z,84.25
2022-10-06T01:59:02.921Z,83.78
2022-10-06T02:01:32.216Z,84.08
2022-10-06T02:04:01.406Z,83.85
2022-10-06T02:06:30.863Z,83.78
2022-10-06T02:09:01.722Z,83.51
2022-10-06T02:11:32.886Z,83.57
2022-10-06T02:14:02.797Z,83.61
2022-10-06T02:16:33.288Z,83.65
2022-10-06T02:19:03.679Z,83.83
2022-10-06T02:21:32.819Z,83.70
2022-10-06T02:24:02.144Z,83.78
2022-10-06T02:26:33.229Z,83.61
2022-10-06T02:29:02.371Z,83.68
2022-10-06T02:31:31.836Z,83.39
2022-10-06T02:34:01.202Z,83.88
2022-10-06T02:36:31.023Z,83.20
2022-10-06T02:39:00.553Z,83.72
2022-10-06T02:41:31.004Z,83.68
2022-10-06T02:44:01.841Z,83.77
2022-10-06T02:46:32.654Z,83.81
2022-10-06T02:49:01.815Z,83.63
2022-10-06T02:51:33.874Z,83.63
2022-10-06T02:54:03.602Z,83.46
2022-10-06T02:56:32.751Z,83.30
2022-10-06T02:59:03.297Z,83.13
2022-10-06T03:01:36.338Z,83.60
2022-10-06T03:04:13.338Z,83.50
2022-10-06T03:06:44.218Z,83.51
2022-10-06T03:09:25.183Z,83.26
2022-10-06T03:11:55.881Z,83.55
2022-10-06T03:14:38.621Z,83.05
2022-10-06T03:17:10.474Z,83.57
2022-10-06T03:19:45.843Z,83.36
2022-10-06T03:22:16.203Z,83.15
2022-10-06T03:24:51.887Z,82.75
2022-10-06T03:27:21.253Z,82.87
2022-10-06T03:29:52.688Z,82.70
2022-10-06T03:32:24.892Z,82.98
2022-10-06T03:34:54.431Z,83.00
2022-10-06T03:37:23.856Z,83.02
2022-10-06T03:39:53.785Z,83.15
2022-10-06T03:42:22.930Z,83.12
2022-10-06T03:44:53.483Z,83.12
2022-10-06T03:47:22.916Z,83.24
2022-10-06T03:49:52.057Z,82.94
2022-10-06T03:52:25.165Z,83.19
2022-10-06T03:54:55.892Z,83.61
2022-10-06T03:57:25.651Z,83.64
2022-10-06T03:59:59.868Z,83.49
2022-10-06T04:02:29.362Z,84.03
2022-10-06T04:04:58.536Z,84.18
2022-10-06T04:07:27.919Z,84.15
2022-10-06T04:09:57.063Z,84.08
2022-10-06T04:12:26.228Z,84.59
2022-10-06T04:15:00.123Z,84.77
2022-10-06T04:17:30.087Z,84.86
2022-10-06T04:19:59.461Z,84.91
2022-10-06T04:22:28.600Z,84.88
2022-10-06T04:24:57.769Z,85.67
2022-10-06T04:27:29.975Z,85.27
2022-10-06T04:30:20.830Z,84.90
2022-10-06T04:32:50.438Z,85.23
2022-10-06T04:35:20.699Z,85.12
2022-10-06T04:37:50.006Z,85.13
2022-10-06T04:40:19.892Z,85.19
2022-10-06T04:42:49.912Z,86.57
2022-10-06T04:45:20.466Z,85.88
2022-10-06T04:47:51.109Z,85.83
2022-10-06T04:50:20.359Z,85.38
2022-10-06T04:53:07.092Z,85.58
2022-10-06T04:55:36.220Z,85.76
2022-10-06T04:58:06.060Z,86.06
2022-10-06T05:00:36.871Z,85.68
2022-10-06T05:03:06.020Z,85.89
2022-10-06T05:05:35.323Z,86.22
2022-10-06T05:08:04.732Z,85.88
2022-10-06T05:10:33.894Z,85.49
2022-10-06T05:13:03.804Z,86.32
2022-10-06T05:15:33.117Z,86.31
2022-10-06T05:18:03.941Z,86.10
2022-10-06T05:20:33.329Z,85.71
2022-10-06T05:23:02.562Z,85.43
2022-10-06T05:25:31.987Z,85.61
2022-10-06T05:28:01.152Z,86.07
2022-10-06T05:30:30.344Z,86.05
2022-10-06T05:32:59.717Z,85.72
2022-10-06T05:35:30.371Z,85.93
2022-10-06T05:37:59.508Z,85.93
2022-10-06T05:40:28.907Z,86.21
2022-10-06T05:42:58.384Z,85.65
2022-10-06T05:45:27.551Z,85.82
2022-10-06T05:47:56.999Z,85.62
2022-10-06T05:50:26.239Z,85.46
2022-10-06T05:52:57.958Z,86.17
2022-10-06T05:55:27.782Z,85.93
2022-10-06T05:57:57.128Z,85.83
2022-10-06T06:00:26.730Z,86.25
2022-10-06T06:02:56.153Z,86.28
2022-10-06T06:05:25.422Z,86.91
2022-10-06T06:07:56.176Z,87.16
2022-10-06T06:10:25.528Z,87.03
2022-10-06T06:12:54.660Z,86.57
2022-10-06T06:15:52.170Z,86.28
2022-10-06T06:18:21.405Z,87.42
2022-10-06T06:20:57.708Z,86.41
2022-10-06T06:23:33.722Z,86.96
2022-10-06T06:26:05.059Z,86.30
2022-10-06T06:28:37.358Z,86.03
2022-10-06T06:31:08.801Z,85.94
2022-10-06T06:33:39.408Z,85.78
2022-10-06T06:36:15.096Z,85.58
2022-10-06T06:38:49.856Z,85.66
2022-10-06T06:41:21.373Z,85.26
2022-10-06T06:43:52.942Z,85.11
2022-10-06T06:49:12.268Z,84.85
2022-10-06T06:51:49.904Z,85.12
2022-10-06T06:54:22.938Z,84.85
2022-10-06T06:56:56.741Z,84.46
2022-10-06T06:59:26.801Z,84.53
2022-10-06T07:01:58.763Z,83.89
2022-10-06T07:04:30.497Z,83.96
2022-10-06T07:06:59.978Z,83.71
2022-10-06T07:09:33.792Z,83.57
2022-10-06T07:12:11.475Z,83.41
2022-10-06T07:15:04.299Z,83.33
2022-10-06T07:17:56.390Z,82.75
2022-10-06T07:20:43.285Z,82.65
2022-10-06T07:23:35.493Z,82.42
2022-10-06T07:26:08.350Z,82.36
2022-10-06T07:28:37.814Z,82.11
2022-10-06T07:31:07.334Z,81.59
2022-10-06T07:33:37.121Z,80.86
2022-10-06T07:36:07.787Z,81.26
2022-10-06T07:38:37.647Z,81.08
2022-10-06T07:41:18.941Z,80.88
2022-10-06T07:44:07.967Z,80.58
2022-10-06T07:46:38.472Z,79.96
2022-10-06T07:49:14.879Z,79.89
2022-10-06T07:51:44.185Z,79.47
2022-10-06T07:54:13.585Z,79.26
2022-10-06T07:56:57.439Z,78.29
2022-10-06T07:59:26.889Z,77.01
2022-10-06T08:01:56.080Z,75.31
2022-10-06T08:04:25.287Z,73.67
2022-10-06T08:06:58.428Z,72.99
2022-10-06T08:09:27.585Z,72.99
2022-10-06T08:11:58.420Z,71.03
2022-10-06T08:14:27.499Z,72.24
2022-10-06T08:16:57.501Z,71.09
2022-10-06T08:19:26.544Z,69.05
2022-10-06T08:21:55.601Z,69.88
2022-10-06T08:24:25.231Z,67.85
2022-10-06T08:26:58.772Z,68.76
2022-10-06T08:29:27.825Z,67.09
2022-10-06T08:31:59.425Z,68.58
2022-10-06T08:34:28.823Z,67.12
2022-10-06T08:37:20.728Z,67.57
2022-10-06T08:39:47.840Z,67.40
2022-10-06T08:42:26.619Z,67.31
2022-10-06T08:45:00.467Z,66.04
2022-10-06T08:47:33.546Z,66.68
2022-10-06T08:50:05.305Z,66.28
2022-10-06T08:52:55.680Z,66.58
2022-10-06T08:55:35.373Z,67.13
2022-10-06T08:58:21.250Z,63.25
2022-10-06T09:00:56.750Z,65.00
2022-10-06T09:03:31.071Z,64.82
2022-10-06T09:06:10.807Z,63.06
2022-10-06T09:08:51.653Z,64.30
2022-10-06T09:11:46.313Z,64.43
2022-10-06T09:14:22.582Z,62.17
2022-10-06T09:16:58.180Z,61.94
2022-10-06T09:19:35.336Z,62.47
2022-10-06T09:22:07.948Z,61.71
2022-10-06T09:24:46.368Z,61.35
2022-10-06T09:27:21.139Z,62.43
2022-10-06T09:29:52.603Z,59.82
2022-10-06T09:32:24.066Z,59.90
2022-10-06T09:34:56.247Z,59.85
2022-10-06T09:37:25.971Z,59.73
2022-10-06T09:39:56.114Z,57.94
2022-10-06T09:42:28.308Z,57.65
2022-10-06T09:45:04.972Z,57.97
2022-10-06T09:47:40.551Z,58.06
2022-10-06T09:50:22.778Z,58.24
2022-10-06T09:53:18.499Z,58.46
2022-10-06T09:55:57.605Z,58.39
2022-10-06T09:58:34.756Z,57.79
2022-10-06T10:01:09.197Z,56.13
2022-10-06T10:04:15.689Z,56.14
2022-10-06T10:06:41.768Z,54.15
2022-10-06T10:09:27.043Z,54.03
2022-10-06T10:12:28.012Z,54.72
2022-10-06T10:15:02.024Z,54.80
2022-10-06T10:17:45.953Z,54.79
2022-10-06T10:20:29.199Z,54.11
2022-10-06T10:23:00.604Z,54.68
2022-10-06T10:25:45.656Z,54.79
2022-10-06T10:28:44.393Z,54.95
2022-10-06T10:31:18.769Z,55.34
2022-10-06T10:34:12.510Z,53.93
2022-10-06T10:36:51.063Z,55.13
2022-10-06T10:39:29.192Z,53.55
2022-10-06T10:42:02.949Z,54.70
2022-10-06T10:44:36.115Z,52.94
2022-10-06T10:47:16.177Z,52.90
2022-10-06T10:49:54.150Z,52.52
2022-10-06T10:52:29.034Z,52.50
2022-10-06T10:55:06.904Z,51.19
2022-10-06T10:57:41.711Z,51.27
2022-10-06T11:00:19.429Z,50.36
2022-10-06T11:02:49.349Z,50.54
2022-10-06T11:05:28.931Z,49.93
2022-10-06T11:08:05.395Z,51.01
2022-10-06T11:10:43.462Z,51.90
2022-10-06T11:13:24.257Z,52.22
2022-10-06T11:16:29.692Z,52.95
2022-10-06T11:19:16.774Z,51.96
2022-10-06T11:21:59.325Z,50.26
2022-10-06T11:24:39.082Z,50.20
2022-10-06T11:27:18.717Z,49.53
2022-10-06T11:29:58.643Z,50.32
2022-10-06T11:32:36.671Z,49.88
2022-10-06T11:35:16.890Z,49.07
2022-10-06T11:37:54.895Z,49.12
2022-10-06T11:40:48.986Z,50.04
2022-10-06T11:43:28.445Z,48.38
2022-10-06T11:46:05.610Z,48.10
2022-10-06T11:48:35.274Z,48.66
2022-10-06T11:51:28.707Z,46.88
2022-10-06T11:53:59.885Z,47.52
2022-10-06T11:56:46.807Z,47.71
2022-10-06T11:59:31.672Z,47.67
2022-10-06T12:02:02.171Z,47.34
2022-10-06T12:04:31.851Z,47.47
2022-10-06T12:07:05.179Z,47.08
2022-10-06T12:09:52.670Z,47.51
2022-10-06T12:13:01.860Z,47.84
2022-10-06T12:19:16.909Z,48.66
2022-10-06T12:21:59.476Z,49.26
2022-10-06T12:24:46.287Z,50.36
2022-10-06T12:27:33.691Z,50.27
2022-10-06T12:30:07.347Z,50.41
2022-10-06T12:32:50.796Z,49.63
2022-10-06T12:35:41.078Z,49.63
2022-10-06T12:38:44.929Z,48.03
2022-10-06T12:41:37.428Z,47.63
2022-10-06T12:44:24.644Z,47.31
2022-10-06T12:46:55.389Z,47.85
2022-10-06T12:49:47.872Z,46.87
2022-10-06T12:52:32.971Z,47.88
2022-10-06T12:55:16.858Z,47.07
2022-10-06T12:57:52.080Z,47.12
2022-10-06T13:00:31.400Z,47.07
2022-10-06T13:03:01.479Z,47.57
2022-10-06T13:05:31.397Z,48.25
2022-10-06T13:08:01.775Z,47.95
2022-10-06T13:10:32.914Z,47.10
2022-10-06T13:13:03.829Z,47.54
2022-10-06T13:15:34.883Z,47.31
2022-10-06T13:18:13.039Z,46.91
2022-10-06T13:20:44.608Z,47.61
2022-10-06T13:23:30.075Z,47.61
2022-10-06T13:26:00.959Z,47.07
2022-10-06T13:28:46.907Z,46.12
2022-10-06T13:31:21.800Z,45.45
2022-10-06T13:33:55.555Z,46.05
2022-10-06T13:36:25.482Z,46.61
2022-10-06T13:38:54.556Z,46.46
2022-10-06T13:41:28.894Z,46.75
2022-10-06T13:44:02.988Z,45.93
2022-10-06T13:46:39.148Z,45.55
2022-10-06T13:49:19.571Z,45.17
2022-10-06T13:51:49.832Z,45.52
2022-10-06T13:54:29.422Z,46.09
2022-10-06T13:56:59.095Z,45.75
2022-10-06T13:59:33.027Z,46.24
2022-10-06T14:02:21.563Z,46.46
2022-10-06T14:05:22.750Z,46.99
2022-10-06T14:07:52.831Z,47.08
2022-10-06T14:10:31.263Z,47.47
2022-10-06T14:13:02.208Z,47.40
2022-10-06T14:15:39.451Z,47.58
2022-10-06T14:18:08.567Z,47.43
2022-10-06T14:20:41.379Z,47.88
2022-10-06T14:23:50.383Z,47.88
2022-10-06T14:26:21.402Z,48.27
2022-10-06T14:28:52.933Z,48.21
2022-10-06T14:31:25.692Z,48.70
2022-10-06T14:33:57.004Z,48.95
2022-10-06T14:36:28.316Z,49.34
2022-10-06T14:38:58.569Z,49.75
2022-10-06T14:41:29.819Z,49.76
2022-10-06T14:44:01.567Z,50.13
2022-10-06T14:46:32.705Z,50.93
2022-10-06T14:49:03.266Z,50.69
2022-10-06T14:51:36.538Z,50.60
2022-10-06T14:54:07.555Z,50.50
2022-10-06T14:56:39.079Z,51.18
2022-10-06T14:59:10.453Z,50.97
2022-10-06T15:01:41.559Z,51.32
2022-10-06T15:04:15.148Z,51.87
2022-10-06T15:07:02.343Z,51.83
2022-10-06T15:09:31.857Z,52.13
2022-10-06T15:12:24.501Z,52.55
2022-10-06T15:14:58.724Z,52.67
2022-10-06T15:17:30.218Z,52.93
2022-10-06T15:19:59.476Z,52.86
2022-10-06T15:22:31.235Z,52.02
2022-10-06T15:25:03.279Z,52.97
2022-10-06T15:27:49.967Z,53.20
2022-10-06T15:30:19.686Z,53.62
2022-10-06T15:32:51.121Z,53.60
2022-10-06T15:35:20.323Z,53.67
2022-10-06T15:37:49.653Z,54.30
2022-10-06T15:40:19.140Z,53.98
2022-10-06T15:42:49.485Z,53.83
2022-10-06T15:45:19.432Z,54.58
2022-10-06T15:47:52.847Z,54.40
2022-10-06T15:50:22.202Z,54.28
2022-10-06T15:52:51.450Z,54.93
2022-10-06T15:55:20.735Z,55.13
2022-10-06T15:57:49.805Z,55.88
2022-10-06T16:00:19.314Z,55.90
2022-10-06T16:02:49.948Z,56.04
2022-10-06T16:05:45.410Z,56.19
2022-10-06T16:08:14.489Z,56.71
2022-10-06T16:10:43.829Z,56.20
2022-10-06T16:13:13.461Z,56.47
2022-10-06T16:15:42.547Z,56.84
2022-10-06T16:18:13.575Z,56.34
2022-10-06T16:20:42.876Z,57.27
2022-10-06T16:23:12.139Z,57.85
2022-10-06T16:25:41.266Z,58.03
2022-10-06T16:28:10.438Z,58.46
2022-10-06T16:30:40.532Z,58.65
2022-10-06T16:33:09.796Z,58.10
2022-10-06T16:35:43.065Z,58.46
2022-10-06T16:38:13.689Z,58.74
2022-10-06T16:40:43.708Z,59.08
2022-10-06T16:43:13.407Z,58.73
2022-10-06T16:45:42.792Z,59.03
2022-10-06T16:48:12.477Z,59.19
2022-10-06T16:50:46.066Z,59.42
2022-10-06T16:53:17.261Z,59.40
2022-10-06T16:55:47.520Z,59.94
2022-10-06T16:58:24.965Z,59.71
2022-10-06T17:01:12.166Z,60.05
2022-10-06T17:03:54.915Z,60.25
2022-10-06T17:06:42.275Z,60.26
2022-10-06T17:09:19.764Z,60.48
2022-10-06T17:11:56.612Z,61.13
2022-10-06T17:14:31.510Z,61.19
2022-10-06T17:17:00.923Z,61.43
2022-10-06T17:19:31.250Z,61.36
2022-10-06T17:22:01.722Z,61.60
2022-10-06T17:24:31.335Z,61.56
2022-10-06T17:27:01.083Z,61.34
2022-10-06T17:29:30.184Z,60.87
2022-10-06T17:32:00.590Z,60.79
2022-10-06T17:34:32.879Z,60.97
2022-10-06T17:37:04.415Z,61.12
2022-10-06T17:39:33.820Z,61.29
2022-10-06T17:42:02.878Z,61.36
2022-10-06T17:44:31.963Z,61.50
2022-10-06T17:47:02.011Z,61.66
2022-10-06T17:49:34.689Z,61.71
2022-10-06T17:52:05.875Z,61.79
2022-10-06T17:54:34.963Z,62.05
2022-10-06T17:57:04.247Z,62.00
2022-10-06T17:59:33.889Z,62.36
2022-10-06T18:02:07.185Z,62.48
2022-10-06T18:04:37.361Z,62.32
2022-10-06T18:07:08.503Z,62.55
2022-10-06T18:09:37.806Z,62.56
2022-10-06T18:12:07.680Z,62.70
2022-10-06T18:14:36.746Z,62.94
2022-10-06T18:17:06.495Z,62.95
2022-10-06T18:19:37.114Z,62.94
2022-10-06T18:22:10.725Z,62.94
2022-10-06T18:24:40.514Z,63.32
2022-10-06T18:27:10.192Z,63.53
2022-10-06T18:29:40.266Z,63.44
2022-10-06T18:33:10.788Z,63.68
2022-10-06T18:37:53.149Z,63.75
2022-10-06T18:40:25.666Z,63.96
2022-10-06T18:42:54.785Z,64.23
2022-10-06T18:45:41.057Z,64.26
2022-10-06T18:48:27.997Z,64.15
2022-10-06T18:51:03.611Z,64.53
2022-10-06T18:53:38.352Z,64.47
2022-10-06T18:56:07.960Z,64.14
2022-10-06T18:58:40.877Z,64.30
2022-10-06T19:01:10.248Z,64.82
2022-10-06T19:03:39.939Z,64.62
2022-10-06T19:06:09.404Z,64.72
2022-10-06T19:08:40.296Z,64.66
2022-10-06T19:11:27.420Z,64.77
2022-10-06T19:13:57.943Z,65.06
2022-10-06T19:16:27.347Z,65.01
2022-10-06T19:18:56.528Z,65.10
2022-10-06T19:21:25.955Z,65.41
2022-10-06T19:23:57.955Z,65.69
2022-10-06T19:26:27.334Z,65.15
2022-10-06T19:28:59.414Z,65.44
2022-10-06T19:31:30.046Z,65.84
2022-10-06T19:34:00.793Z,65.95
2022-10-06T19:36:30.575Z,65.92
2022-10-06T19:39:02.743Z,66.10
2022-10-06T19:41:50.333Z,66.21
2022-10-06T19:44:19.488Z,66.31
2022-10-06T19:46:48.838Z,66.15
2022-10-06T19:49:19.883Z,66.15
2022-10-06T19:51:50.671Z,66.38
2022-10-06T19:54:22.482Z,66.79
2022-10-06T19:56:51.915Z,66.72
2022-10-06T19:59:22.575Z,66.99
2022-10-06T20:01:53.101Z,66.88
2022-10-06T20:04:23.707Z,66.69
2022-10-06T20:06:53.311Z,66.96
2022-10-06T20:09:25.343Z,67.01
2022-10-06T20:11:54.922Z,67.52
2022-10-06T20:14:26.420Z,67.40
2022-10-06T20:16:57.580Z,68.35
2022-10-06T20:19:26.842Z,67.63
2022-10-06T20:21:56.426Z,67.76
2022-10-06T20:24:27.883Z,67.86
2022-10-06T20:26:57.252Z,67.76
2022-10-06T20:29:28.123Z,68.03
2022-10-06T20:31:58.885Z,67.99
2022-10-06T20:34:32.055Z,68.36
2022-10-06T20:37:02.613Z,68.22
2022-10-06T20:39:52.350Z,67.98
2022-10-06T20:42:22.187Z,68.42
2022-10-06T20:44:51.530Z,68.14
2022-10-06T20:47:21.232Z,68.65
2022-10-06T20:49:54.957Z,69.13
2022-10-06T20:52:24.294Z,69.41
2022-10-06T20:54:55.136Z,69.61
2022-10-06T20:57:24.262Z,69.80
2022-10-06T20:59:53.516Z,69.83
2022-10-06T21:02:23.353Z,69.51
2022-10-06T21:04:52.718Z,69.32
2022-10-06T21:07:21.905Z,69.20
2022-10-06T21:09:52.334Z,69.45
2022-10-06T21:12:23.106Z,69.12
2022-10-06T21:14:52.548Z,69.93
2022-10-06T21:17:21.821Z,69.58
2022-10-06T21:19:51.023Z,69.56
2022-10-06T21:22:20.448Z,69.75
2022-10-06T21:24:49.638Z,69.59
2022-10-06T21:27:19.213Z,69.56
2022-10-06T21:29:50.099Z,69.72
2022-10-06T21:32:19.671Z,69.84
2022-10-06T21:34:49.110Z,70.38
2022-10-06T21:37:18.906Z,70.86
2022-10-06T21:39:48.402Z,70.37
2022-10-06T21:42:17.695Z,70.53
2022-10-06T21:44:48.621Z,70.73
2022-10-06T21:47:17.972Z,70.26
2022-10-06T21:49:47.738Z,70.33
2022-10-06T21:52:17.299Z,70.42
2022-10-06T21:54:46.975Z,71.17
2022-10-06T21:57:16.550Z,71.04
2022-10-06T21:59:49.323Z,71.04
2022-10-06T22:02:21.013Z,71.73
2022-10-06T22:04:52.078Z,72.69
2022-10-06T22:07:21.542Z,72.95
2022-10-06T22:09:51.743Z,71.98
2022-10-06T22:12:21.912Z,71.45
2022-10-06T22:14:51.379Z,71.19
2022-10-06T22:17:21.986Z,71.21
2022-10-06T22:19:51.491Z,72.44
2022-10-06T22:22:20.959Z,72.71
2022-10-06T22:24:50.169Z,71.41
2022-10-06T22:27:19.427Z,71.79
2022-10-06T22:29:48.823Z,71.51
2022-10-06T22:32:18.374Z,71.70
2022-10-06T22:34:49.081Z,71.54
2022-10-06T22:37:18.635Z,71.84
2022-10-06T22:39:47.818Z,72.03
2022-10-06T22:42:17.025Z,71.97
2022-10-06T22:44:46.433Z,71.52
2022-10-06T22:47:17.596Z,72.52
2022-10-06T22:49:48.193Z,72.03
2022-10-06T22:52:17.744Z,72.40
2022-10-06T22:54:46.920Z,72.04
2022-10-06T22:57:16.085Z,72.58
2022-10-06T22:59:45.477Z,72.85
2022-10-06T23:02:14.646Z,72.42
2022-10-06T23:04:43.816Z,72.82
2022-10-06T23:07:14.614Z,72.24
2022-10-06T23:09:43.844Z,72.06
2022-10-06T23:12:13.019Z,72.12
2022-10-06T23:14:42.422Z,73.13
2022-10-06T23:17:11.607Z,73.09
2022-10-06T23:19:40.811Z,73.46
2022-10-06T23:22:10.237Z,73.47
2022-10-06T23:24:40.854Z,73.17
2022-10-06T23:27:10.042Z,72.86
2022-10-06T23:29:39.431Z,72.78
2022-10-06T23:32:08.654Z,72.51
2022-10-06T23:34:37.878Z,73.21
2022-10-06T23:37:07.284Z,73.31
2022-10-06T23:39:36.485Z,72.44
2022-10-06T23:42:09.650Z,72.16
2022-10-06T23:44:40.324Z,72.29
2022-10-06T23:47:09.731Z,71.84
2022-10-06T23:49:38.905Z,72.20
2022-10-06T23:52:08.280Z,71.44
2022-10-06T23:54:37.486Z,71.71
2022-10-06T23:57:08.050Z,71.60
2022-10-06T23:59:37.490Z,71.58
